sensor_id;sensor_type;location;lat;lon;timestamp;pressure;altitude;pressure_sealevel;temperature;humidity
72330;BME280;60660;52.076;5.110;2023-03-15T15:15:48;101989.79;;;3.86;39.38
72330;BME280;60660;52.076;5.110;2023-03-15T15:18:13;101982.38;;;5.33;33.23
72330;BME280;60660;52.076;5.110;2023-03-15T15:21:13;101981.71;;;9.26;27.48
72330;BME280;60660;52.076;5.110;2023-03-15T15:24:59;101981.90;;;9.70;24.98
72330;BME280;60660;52.076;5.110;2023-03-15T15:27:24;101979.54;;;10.30;23.05
72330;BME280;60660;52.076;5.110;2023-03-15T15:29:50;101973.08;;;8.13;23.70
72330;BME280;60660;52.076;5.110;2023-03-15T15:32:16;101975.64;;;10.23;23.05
72330;BME280;60660;52.076;5.110;2023-03-15T15:34:40;101967.47;;;10.67;21.78
72330;BME280;60660;52.076;5.110;2023-03-15T15:37:08;101962.12;;;7.91;24.07
72330;BME280;60660;52.076;5.110;2023-03-15T15:39:32;101964.45;;;9.09;23.83
72330;BME280;60660;52.076;5.110;2023-03-15T15:41:56;101963.38;;;10.25;22.83
72330;BME280;60660;52.076;5.110;2023-03-15T15:44:23;101957.62;;;10.58;20.94
72330;BME280;60660;52.076;5.110;2023-03-15T15:46:47;101950.91;;;10.11;20.93
72330;BME280;60660;52.076;5.110;2023-03-15T15:49:12;101952.64;;;9.60;22.70
72330;BME280;60660;52.076;5.110;2023-03-15T15:51:39;101949.63;;;6.89;23.78
72330;BME280;60660;52.076;5.110;2023-03-15T15:54:04;101953.71;;;8.73;23.67
72330;BME280;60660;52.076;5.110;2023-03-15T15:56:31;101955.10;;;8.86;22.57
72330;BME280;60660;52.076;5.110;2023-03-15T15:58:53;101953.36;;;9.59;22.14
72330;BME280;60660;52.076;5.110;2023-03-15T16:01:23;101949.43;;;9.00;22.33
72330;BME280;60660;52.076;5.110;2023-03-15T16:03:44;101942.42;;;9.65;21.98
72330;BME280;60660;52.076;5.110;2023-03-15T16:06:15;101946.35;;;11.13;20.59
72330;BME280;60660;52.076;5.110;2023-03-15T16:08:37;101942.53;;;12.29;19.33
72330;BME280;60660;52.076;5.110;2023-03-15T16:11:07;101942.12;;;12.13;19.59
72330;BME280;60660;52.076;5.110;2023-03-15T16:13:25;101942.78;;;12.35;19.29
72330;BME280;60660;52.076;5.110;2023-03-15T16:15:50;101943.71;;;11.29;19.04
72330;BME280;60660;52.076;5.110;2023-03-15T16:18:17;101941.14;;;9.77;19.39
72330;BME280;60660;52.076;5.110;2023-03-15T16:20:41;101947.76;;;9.63;20.08
72330;BME280;60660;52.076;5.110;2023-03-15T16:23:09;101949.90;;;8.79;20.40
72330;BME280;60660;52.076;5.110;2023-03-15T16:25:34;101947.79;;;6.48;21.35
72330;BME280;60660;52.076;5.110;2023-03-15T16:27:58;101952.56;;;7.90;22.24
72330;BME280;60660;52.076;5.110;2023-03-15T16:30:25;101953.48;;;7.53;21.43
72330;BME280;60660;52.076;5.110;2023-03-15T16:32:48;101954.86;;;8.37;21.08
72330;BME280;60660;52.076;5.110;2023-03-15T16:35:13;101955.79;;;7.57;22.30
72330;BME280;60660;52.076;5.110;2023-03-15T16:37:38;101954.84;;;7.36;21.87
72330;BME280;60660;52.076;5.110;2023-03-15T16:40:04;101956.04;;;8.96;22.02
72330;BME280;60660;52.076;5.110;2023-03-15T16:42:29;101953.16;;;8.96;21.60
72330;BME280;60660;52.076;5.110;2023-03-15T16:44:54;101952.75;;;6.96;20.91
72330;BME280;60660;52.076;5.110;2023-03-15T16:47:20;101955.52;;;6.17;22.54
72330;BME280;60660;52.076;5.110;2023-03-15T16:49:45;101956.20;;;5.53;22.24
72330;BME280;60660;52.076;5.110;2023-03-15T16:51:22;101958.05;;;5.69;23.65
72330;BME280;60660;52.076;5.110;2023-03-15T16:54:05;101959.47;;;6.16;24.12
72330;BME280;60660;52.076;5.110;2023-03-15T16:56:17;101959.90;;;5.95;22.61
72330;BME280;60660;52.076;5.110;2023-03-15T16:58:38;101962.27;;;5.80;24.01
72330;BME280;60660;52.076;5.110;2023-03-15T17:01:19;101963.93;;;7.47;23.56
72330;BME280;60660;52.076;5.110;2023-03-15T17:03:31;101964.78;;;6.55;23.01
72330;BME280;60660;52.076;5.110;2023-03-15T17:05:56;101964.18;;;5.88;23.26
72330;BME280;60660;52.076;5.110;2023-03-15T17:08:20;101965.28;;;5.24;23.63
72330;BME280;60660;52.076;5.110;2023-03-15T17:10:45;101968.70;;;5.10;24.37
72330;BME280;60660;52.076;5.110;2023-03-15T17:13:14;101970.86;;;5.31;24.69
72330;BME280;60660;52.076;5.110;2023-03-15T17:15:36;101965.40;;;5.66;24.66
72330;BME280;60660;52.076;5.110;2023-03-15T17:18:01;101963.62;;;6.60;23.86
72330;BME280;60660;52.076;5.110;2023-03-15T17:20:30;101963.80;;;6.24;23.92
72330;BME280;60660;52.076;5.110;2023-03-15T17:26:10;101994.16;;;5.98;68.98
72330;BME280;60660;52.076;5.110;2023-03-15T17:28:33;101990.14;;;10.39;47.65
72330;BME280;60660;52.076;5.110;2023-03-15T17:30:58;101988.97;;;14.32;36.13
72330;BME280;60660;52.076;5.110;2023-03-15T17:33:24;101980.83;;;16.82;30.22
72330;BME280;60660;52.076;5.110;2023-03-15T17:35:52;101980.51;;;18.59;26.56
72330;BME280;60660;52.076;5.110;2023-03-15T17:38:18;101975.65;;;20.12;24.19
72330;BME280;60660;52.076;5.110;2023-03-15T17:40:42;101969.42;;;21.06;22.67
72330;BME280;60660;52.076;5.110;2023-03-15T17:43:11;101973.17;;;21.59;21.63
72330;BME280;60660;52.076;5.110;2023-03-15T17:45:33;101974.15;;;22.22;20.66
72330;BME280;60660;52.076;5.110;2023-03-15T17:47:57;101972.09;;;22.90;20.06
72330;BME280;60660;52.076;5.110;2023-03-15T17:50:25;101973.28;;;22.62;19.67
72330;BME280;60660;52.076;5.110;2023-03-15T17:52:52;101972.33;;;23.28;19.30
72330;BME280;60660;52.076;5.110;2023-03-15T17:55:16;101970.08;;;22.98;19.16
72330;BME280;60660;52.076;5.110;2023-03-15T17:57:40;101972.49;;;23.80;18.85
72330;BME280;60660;52.076;5.110;2023-03-15T18:00:09;101977.55;;;22.99;18.82
72330;BME280;60660;52.076;5.110;2023-03-15T18:02:31;101976.96;;;23.73;18.56
72330;BME280;60660;52.076;5.110;2023-03-15T18:04:57;101976.41;;;23.57;18.51
72330;BME280;60660;52.076;5.110;2023-03-15T18:07:22;101977.84;;;23.35;18.44
72330;BME280;60660;52.076;5.110;2023-03-15T18:09:48;101978.16;;;23.29;18.39
72330;BME280;60660;52.076;5.110;2023-03-15T18:12:13;101980.68;;;23.86;18.13
72330;BME280;60660;52.076;5.110;2023-03-15T18:14:39;101980.77;;;23.91;18.08
72330;BME280;60660;52.076;5.110;2023-03-15T18:17:04;101976.84;;;23.76;18.14
72330;BME280;60660;52.076;5.110;2023-03-15T18:19:30;101973.47;;;23.75;18.01
72330;BME280;60660;52.076;5.110;2023-03-15T18:21:56;101978.50;;;23.45;18.11
72330;BME280;60660;52.076;5.110;2023-03-15T18:24:22;101978.17;;;23.71;18.02
72330;BME280;60660;52.076;5.110;2023-03-15T18:26:48;101976.34;;;23.90;18.04
72330;BME280;60660;52.076;5.110;2023-03-15T18:29:13;101975.65;;;24.06;17.90
72330;BME280;60660;52.076;5.110;2023-03-15T18:31:39;101971.91;;;23.34;17.99
72330;BME280;60660;52.076;5.110;2023-03-15T18:34:05;101971.21;;;24.07;17.79
72330;BME280;60660;52.076;5.110;2023-03-15T18:36:31;101971.65;;;23.97;17.78
72330;BME280;60660;52.076;5.110;2023-03-15T18:38:56;101968.11;;;23.89;17.91
72330;BME280;60660;52.076;5.110;2023-03-15T18:41:23;101973.92;;;23.73;17.82
72330;BME280;60660;52.076;5.110;2023-03-15T18:43:48;101972.08;;;23.79;17.99
72330;BME280;60660;52.076;5.110;2023-03-15T18:46:15;101972.06;;;23.60;17.86
72330;BME280;60660;52.076;5.110;2023-03-15T18:48:39;101972.69;;;23.66;17.88
72330;BME280;60660;52.076;5.110;2023-03-15T18:51:08;101972.52;;;23.83;17.86
72330;BME280;60660;52.076;5.110;2023-03-15T18:53:31;101972.21;;;24.34;17.65
72330;BME280;60660;52.076;5.110;2023-03-15T18:55:56;101973.87;;;23.90;17.82
72330;BME280;60660;52.076;5.110;2023-03-15T18:58:22;101969.51;;;23.41;17.90
72330;BME280;60660;52.076;5.110;2023-03-15T19:00:48;101964.62;;;23.49;17.91
72330;BME280;60660;52.076;5.110;2023-03-15T19:03:13;101964.11;;;23.71;17.83
72330;BME280;60660;52.076;5.110;2023-03-15T19:05:39;101961.93;;;23.75;17.93
72330;BME280;60660;52.076;5.110;2023-03-15T19:08:05;101957.48;;;23.44;17.94
72330;BME280;60660;52.076;5.110;2023-03-15T19:10:31;101953.29;;;23.88;17.75
72330;BME280;60660;52.076;5.110;2023-03-15T19:12:56;101953.70;;;23.28;17.88
72330;BME280;60660;52.076;5.110;2023-03-15T19:15:22;101952.21;;;23.43;17.82
72330;BME280;60660;52.076;5.110;2023-03-15T19:17:49;101950.63;;;23.71;17.69
72330;BME280;60660;52.076;5.110;2023-03-15T19:20:15;101947.92;;;23.01;17.95
72330;BME280;60660;52.076;5.110;2023-03-15T19:22:39;101947.82;;;23.81;17.69
72330;BME280;60660;52.076;5.110;2023-03-15T19:25:06;101952.43;;;23.12;17.87
72330;BME280;60660;52.076;5.110;2023-03-15T19:27:31;101954.14;;;25.10;17.01
72330;BME280;60660;52.076;5.110;2023-03-15T19:29:56;101952.19;;;26.16;16.55
72330;BME280;60660;52.076;5.110;2023-03-15T19:32:22;101948.13;;;26.68;16.39
72330;BME280;60660;52.076;5.110;2023-03-15T19:34:48;101950.95;;;26.80;16.26
72330;BME280;60660;52.076;5.110;2023-03-15T19:37:14;101952.72;;;26.67;16.28
72330;BME280;60660;52.076;5.110;2023-03-15T19:39:39;101948.25;;;26.48;16.24
72330;BME280;60660;52.076;5.110;2023-03-15T19:42:05;101946.96;;;26.47;16.35
72330;BME280;60660;52.076;5.110;2023-03-15T19:44:31;101946.83;;;25.93;16.38
72330;BME280;60660;52.076;5.110;2023-03-15T19:46:57;101943.54;;;25.78;16.55
72330;BME280;60660;52.076;5.110;2023-03-15T19:49:23;101942.03;;;26.23;16.57
72330;BME280;60660;52.076;5.110;2023-03-15T19:51:48;101943.38;;;26.26;16.42
72330;BME280;60660;52.076;5.110;2023-03-15T19:54:14;101939.63;;;26.33;16.30
72330;BME280;60660;52.076;5.110;2023-03-15T19:56:40;101936.36;;;26.25;16.40
72330;BME280;60660;52.076;5.110;2023-03-15T19:59:06;101939.05;;;25.94;16.41
72330;BME280;60660;52.076;5.110;2023-03-15T20:01:32;101939.38;;;26.21;16.34
72330;BME280;60660;52.076;5.110;2023-03-15T20:03:57;101937.95;;;26.17;16.27
72330;BME280;60660;52.076;5.110;2023-03-15T20:06:23;101941.18;;;26.53;16.20
72330;BME280;60660;52.076;5.110;2023-03-15T20:12:42;101943.18;;;13.08;40.05
72330;BME280;60660;52.076;5.110;2023-03-15T20:15:08;101942.89;;;15.60;28.29
72330;BME280;60660;52.076;5.110;2023-03-15T20:17:32;101944.77;;;18.01;25.15
72330;BME280;60660;52.076;5.110;2023-03-15T20:19:57;101943.08;;;15.58;24.49
72330;BME280;60660;52.076;5.110;2023-03-15T20:22:22;101940.08;;;19.34;22.49
72330;BME280;60660;52.076;5.110;2023-03-15T20:24:47;101938.06;;;19.83;21.84
72330;BME280;60660;52.076;5.110;2023-03-15T20:27:12;101934.09;;;21.34;22.91
72330;BME280;60660;52.076;5.110;2023-03-15T20:29:38;101935.56;;;21.08;20.69
72330;BME280;60660;52.076;5.110;2023-03-15T20:32:04;101940.32;;;20.37;20.88
72330;BME280;60660;52.076;5.110;2023-03-15T20:34:30;101942.86;;;19.95;21.12
72330;BME280;60660;52.076;5.110;2023-03-15T20:36:55;101943.03;;;21.90;20.07
72330;BME280;60660;52.076;5.110;2023-03-15T20:39:21;101944.32;;;21.55;20.19
72330;BME280;60660;52.076;5.110;2023-03-15T20:41:47;101940.24;;;21.96;20.02
72330;BME280;60660;52.076;5.110;2023-03-15T20:44:12;101938.69;;;21.18;20.72
72330;BME280;60660;52.076;5.110;2023-03-15T20:46:43;101945.33;;;20.64;21.11
72330;BME280;60660;52.076;5.110;2023-03-15T20:49:04;101937.60;;;20.32;20.77
72330;BME280;60660;52.076;5.110;2023-03-15T20:51:30;101939.50;;;21.29;20.47
72330;BME280;60660;52.076;5.110;2023-03-15T20:53:59;101941.71;;;22.36;20.16
